KDFW/DFW METAR and TAF weather

Enter ICAO airport designator
Station Type Date Time Source
KDFW METAR 2019/08/22 08:53 UTC NOAA

KDFW 220853Z 20010KT 10SM CLR 28/19 A2991 RMK AO2 SLP116 T02830194 58003


Station Type Date Time Source
KDFW Decoded METAR 2019/08/22 08:53 UTC NOAA

Station name not available
Aug 22, 2019 - 04:53 AM EDT / 2019.08.22 0853 UTC
Wind: from the SSW (200 degrees) at 12 MPH (10 KT):0
Visibility: 10 mile(s):0
Sky conditions: clear
Temperature: 82.9 F (28.3 C)
Dew Point: 66.9 F (19.4 C)
Relative Humidity: 58%
Pressure (altimeter): 29.91 in. Hg (1012 hPa)
Pressure tendency: 0.01 inches (0.3 hPa) lower than three hours ago
ob: KDFW 220853Z 20010KT 10SM CLR 28/19 A2991 RMK AO2 SLP116 T02830194 58003
cycle: 9

Station Type Date Time Source
KDFW TAF 2019/08/22 09:06 UTC NOAA

TAF
AMD KDFW 220905Z 2209/2312 17009KT P6SM SCT070 SCT300

Example: see airport list